createdAt,value
2022-09-06T00:00:54.542Z,68.11
2022-09-06T00:05:41.265Z,69.59
2022-09-06T00:10:27.465Z,70.82
2022-09-06T00:15:14.208Z,71.14
2022-09-06T00:19:47.190Z,71.33
2022-09-06T00:24:20.907Z,71.48
2022-09-06T00:29:07.181Z,72.99
2022-09-06T00:33:39.297Z,74.03
2022-09-06T00:38:25.788Z,73.64
2022-09-06T00:43:12.329Z,74.18
2022-09-06T00:47:45.443Z,74.01
2022-09-06T00:52:31.676Z,74.49
2022-09-06T00:57:05.179Z,72.42
2022-09-06T01:01:51.714Z,71.64
2022-09-06T01:06:24.809Z,70.95
2022-09-06T01:11:02.125Z,70.44
2022-09-06T01:15:37.658Z,70.09
2022-09-06T01:20:20.911Z,69.98
2022-09-06T01:25:04.701Z,70.61
2022-09-06T01:29:48.688Z,70.14
2022-09-06T01:34:36.653Z,70.10
2022-09-06T01:39:22.802Z,69.89
2022-09-06T01:44:12.227Z,71.07
2022-09-06T01:48:46.676Z,71.31
2022-09-06T01:53:15.160Z,74.07
2022-09-06T01:57:50.666Z,76.25
2022-09-06T02:02:40.188Z,76.47
2022-09-06T02:07:24.808Z,76.80
2022-09-06T02:12:10.939Z,76.92
2022-09-06T02:16:57.398Z,77.52
2022-09-06T02:21:43.900Z,77.45
2022-09-06T02:26:42.564Z,77.54
2022-09-06T02:31:15.783Z,77.14
2022-09-06T02:36:02.405Z,77.02
2022-09-06T02:40:48.759Z,77.12
2022-09-06T02:45:21.726Z,77.49
2022-09-06T02:50:08.157Z,77.48
2022-09-06T02:54:54.560Z,77.02
2022-09-06T02:59:27.840Z,76.38
2022-09-06T03:03:59.866Z,75.47
2022-09-06T03:08:46.144Z,75.41
2022-09-06T03:13:20.840Z,75.71
2022-09-06T03:18:07.340Z,76.36
2022-09-06T03:22:40.643Z,76.62
2022-09-06T03:27:27.283Z,78.00
2022-09-06T03:32:13.606Z,78.74
2022-09-06T03:36:49.292Z,78.43
2022-09-06T03:41:35.786Z,78.15
2022-09-06T03:46:10.385Z,77.48
2022-09-06T03:50:36.159Z,77.39
2022-09-06T03:55:07.013Z,77.30
2022-09-06T03:59:24.667Z,77.74
2022-09-06T04:03:57.858Z,77.64
2022-09-06T04:08:23.735Z,77.26
2022-09-06T04:12:56.236Z,77.27
2022-09-06T04:17:19.261Z,77.47
2022-09-06T04:21:50.743Z,77.18
2022-09-06T04:26:37.181Z,76.90
2022-09-06T04:31:10.395Z,76.98
2022-09-06T04:36:14.891Z,76.56
2022-09-06T04:51:33.020Z,77.39
2022-09-06T05:20:29.477Z,73.37
2022-09-06T05:35:24.125Z,69.61
2022-09-06T05:49:17.728Z,65.94
2022-09-06T06:17:12.048Z,61.23
2022-09-06T06:21:26.356Z,59.42
2022-09-06T06:25:34.334Z,58.89
2022-09-06T06:45:17.437Z,55.34
2022-09-06T06:49:29.368Z,53.74
2022-09-06T06:53:44.877Z,54.10
2022-09-06T06:57:53.289Z,52.85
2022-09-06T07:44:34.968Z,47.47
2022-09-06T07:49:26.759Z,46.56
2022-09-06T07:54:29.954Z,45.65
2022-09-06T07:58:43.644Z,46.45
2022-09-06T08:02:56.276Z,46.67
2022-09-06T08:07:44.337Z,46.50
2022-09-06T08:11:56.523Z,45.73
2022-09-06T08:16:09.252Z,45.64
2022-09-06T08:20:43.646Z,45.68
2022-09-06T08:24:56.567Z,45.78
2022-09-06T08:29:43.079Z,45.35
2022-09-06T08:38:27.715Z,45.87
2022-09-06T08:42:46.235Z,45.34
2022-09-06T08:51:38.503Z,45.09
2022-09-06T08:56:13.469Z,44.94
2022-09-06T09:00:46.110Z,45.66
2022-09-06T09:05:12.391Z,47.12
2022-09-06T09:09:43.831Z,45.86
2022-09-06T09:14:13.152Z,47.10
2022-09-06T09:18:59.828Z,46.34
2022-09-06T09:23:25.668Z,45.96
2022-09-06T09:27:47.228Z,45.71
2022-09-06T09:31:59.558Z,46.75
2022-09-06T09:36:14.651Z,47.82
2022-09-06T09:40:40.817Z,47.18
2022-09-06T09:44:53.066Z,46.10
2022-09-06T09:49:19.190Z,45.50
2022-09-06T09:53:31.637Z,45.52
2022-09-06T09:57:44.165Z,45.51
2022-09-06T10:02:16.827Z,46.58
2022-09-06T10:11:21.758Z,46.66
2022-09-06T10:16:14.236Z,47.33
2022-09-06T10:24:53.098Z,46.55
2022-09-06T10:29:21.713Z,46.58
2022-09-06T10:33:32.412Z,46.41
2022-09-06T10:37:53.078Z,47.38
2022-09-06T10:42:05.896Z,46.88
2022-09-06T10:46:17.007Z,46.62
2022-09-06T10:50:35.458Z,46.37
2022-09-06T10:54:49.217Z,45.84
2022-09-06T11:04:16.223Z,44.74
2022-09-06T11:13:02.885Z,45.16
2022-09-06T11:17:09.885Z,44.89
2022-09-06T11:21:36.111Z,44.50
2022-09-06T11:26:14.385Z,45.11
2022-09-06T11:30:27.205Z,45.57
2022-09-06T11:34:44.839Z,46.62
2022-09-06T11:39:03.141Z,46.01
2022-09-06T11:43:32.269Z,45.86
2022-09-06T11:47:39.039Z,45.00
2022-09-06T11:51:51.340Z,44.67
2022-09-06T11:56:04.289Z,44.34
2022-09-06T12:00:16.220Z,44.60
2022-09-06T12:04:49.146Z,44.49
2022-09-06T12:09:15.262Z,44.49
2022-09-06T12:13:41.424Z,44.67
2022-09-06T12:17:53.526Z,44.74
2022-09-06T12:22:18.165Z,45.04
2022-09-06T12:26:30.784Z,45.15
2022-09-06T12:31:18.293Z,45.64
2022-09-06T12:40:03.563Z,45.48
2022-09-06T12:44:29.618Z,45.13
2022-09-06T12:49:14.639Z,44.64
2022-09-06T12:53:29.556Z,44.08
2022-09-06T12:57:54.210Z,43.78
2022-09-06T13:02:07.004Z,44.31
2022-09-06T13:06:33.609Z,44.58
2022-09-06T13:10:45.988Z,45.08
2022-09-06T13:15:11.798Z,44.87
2022-09-06T13:19:37.081Z,44.51
2022-09-06T13:23:52.203Z,44.32
2022-09-06T13:27:55.619Z,44.23
2022-09-06T13:32:21.919Z,44.77
2022-09-06T13:37:13.419Z,45.33
2022-09-06T13:41:26.155Z,44.97
2022-09-06T13:46:05.058Z,45.09
2022-09-06T13:50:18.007Z,45.41
2022-09-06T13:54:30.351Z,45.55
2022-09-06T13:58:41.881Z,45.63
2022-09-06T14:03:22.934Z,45.83
2022-09-06T14:07:30.521Z,46.17
2022-09-06T14:11:53.615Z,46.80
2022-09-06T14:16:06.288Z,47.12
2022-09-06T14:20:18.455Z,47.27
2022-09-06T14:29:25.405Z,47.52
2022-09-06T14:33:58.702Z,47.74
2022-09-06T14:38:31.750Z,48.20
2022-09-06T14:42:46.566Z,48.74
2022-09-06T15:02:22.537Z,49.76
2022-09-06T15:17:11.910Z,50.79
2022-09-06T15:21:51.957Z,51.07
2022-09-06T15:36:55.190Z,51.34
2022-09-06T15:52:11.659Z,52.02
2022-09-06T15:57:04.148Z,52.88
2022-09-06T16:01:42.795Z,53.06
2022-09-06T16:06:31.440Z,53.31
2022-09-06T16:11:04.671Z,53.69
2022-09-06T16:15:37.721Z,54.18
2022-09-06T16:20:24.160Z,54.25
2022-09-06T16:24:56.915Z,54.18
2022-09-06T16:29:29.793Z,53.93
2022-09-06T16:34:02.855Z,53.93
2022-09-06T16:38:35.531Z,54.22
2022-09-06T16:43:00.798Z,54.16
2022-09-06T16:47:34.009Z,54.21
2022-09-06T16:52:00.038Z,54.47
2022-09-06T16:56:33.039Z,54.78
2022-09-06T17:01:05.900Z,55.04
2022-09-06T17:05:39.090Z,55.61
2022-09-06T17:10:12.549Z,56.00
2022-09-06T17:14:45.250Z,55.97
2022-09-06T17:19:08.636Z,56.34
2022-09-06T17:23:41.679Z,56.47
2022-09-06T17:28:13.526Z,56.95
2022-09-06T17:32:46.205Z,57.27
2022-09-06T17:37:13.673Z,57.44
2022-09-06T17:41:46.470Z,58.00
2022-09-06T17:46:19.354Z,58.24
2022-09-06T17:51:06.009Z,58.01
2022-09-06T17:55:52.336Z,58.18
2022-09-06T18:00:20.018Z,57.73
2022-09-06T18:04:52.945Z,57.84
2022-09-06T18:09:25.422Z,57.63
2022-09-06T18:13:57.696Z,57.57
2022-09-06T18:18:25.522Z,57.42
2022-09-06T18:22:58.337Z,57.65
2022-09-06T18:27:31.514Z,57.55
2022-09-06T18:32:04.859Z,57.89
2022-09-06T18:36:37.621Z,58.58
2022-09-06T18:41:10.137Z,58.92
2022-09-06T18:45:56.442Z,59.38
2022-09-06T18:50:29.194Z,59.62
2022-09-06T18:55:00.914Z,59.57
2022-09-06T18:59:34.449Z,59.86
2022-09-06T19:04:20.612Z,59.98
2022-09-06T19:09:13.111Z,60.31
2022-09-06T19:14:04.510Z,60.11
2022-09-06T19:18:32.011Z,59.86
2022-09-06T19:38:42.066Z,61.18
2022-09-06T19:52:45.189Z,60.94
2022-09-06T20:07:53.744Z,61.20
2022-09-06T20:22:26.827Z,61.31
2022-09-06T20:53:48.287Z,61.40
2022-09-06T20:58:21.557Z,60.92
2022-09-06T21:02:48.938Z,60.58
2022-09-06T21:07:35.646Z,60.37
2022-09-06T21:12:22.474Z,60.50
2022-09-06T21:16:49.794Z,60.55
2022-09-06T21:21:23.145Z,60.61
2022-09-06T21:25:55.928Z,60.60
2022-09-06T21:30:40.519Z,60.64
2022-09-06T21:40:02.070Z,61.07
2022-09-06T21:44:34.630Z,61.03
2022-09-06T21:53:56.846Z,61.65
2022-09-06T21:58:29.933Z,61.81
2022-09-06T22:03:03.189Z,61.79
2022-09-06T22:07:49.541Z,62.00
2022-09-06T22:12:36.150Z,62.41
2022-09-06T22:17:22.581Z,62.66
2022-09-06T22:22:08.485Z,63.20
2022-09-06T22:31:28.431Z,63.57
2022-09-06T22:35:42.964Z,63.50
2022-09-06T22:40:29.020Z,63.64
2022-09-06T22:45:02.293Z,63.70
2022-09-06T22:49:35.282Z,63.76
2022-09-06T22:54:08.270Z,63.74
2022-09-06T22:58:54.864Z,63.97
2022-09-06T23:03:41.503Z,64.00
2022-09-06T23:08:14.471Z,63.96
2022-09-06T23:12:47.169Z,63.94
2022-09-06T23:22:20.646Z,64.39
2022-09-06T23:27:09.718Z,64.49
2022-09-06T23:31:55.833Z,64.15
2022-09-06T23:36:28.856Z,63.69
2022-09-06T23:41:15.455Z,63.42
2022-09-06T23:46:02.125Z,63.27
2022-09-06T23:50:27.849Z,63.00
2022-09-06T23:55:14.618Z,62.72
2022-09-06T23:59:50.477Z,62.52
